San Simon, Arizona
Current Conditions -  °F | °C
As of 5:35 PM on Friday 24 Oct 2014 (Local Time) from KLSB Reporting Station
Clear Clear  
Wind Chill: 73°   Ceiling: Unl
Heat Index: 73°   Visibility: 10mi
Dew Point: 41°   Wind: 0mph
Humidity: 31%   Direction: NA
Pressure: 30.16"   Gusts: NA
Location:  32.27°N, 109.23°W
Report Text: KLSB 250035Z AUTO 00000KT 10SM CLR 23/05 A3016 RMK AO2
Loading
Personal Weather Stations






























Interactive Weather Map
Tropical Storm Tracking
New forecast layout! Learn more

10-Day Weather Forecast

Advertisements
Track Severe Weather on mobile